createdAt,value
2022-09-02T00:00:53.667Z,18.36
2022-09-02T00:01:53.939Z,18.28
2022-09-02T00:02:54.057Z,18.37
2022-09-02T00:03:54.759Z,18.24
2022-09-02T00:04:54.781Z,18.28
2022-09-02T00:05:54.447Z,18.25
2022-09-02T00:06:54.613Z,18.28
2022-09-02T00:07:54.777Z,18.27
2022-09-02T00:08:54.948Z,18.33
2022-09-02T00:09:55.100Z,18.28
2022-09-02T00:10:55.285Z,18.27
2022-09-02T00:11:55.414Z,18.25
2022-09-02T00:12:55.603Z,18.31
2022-09-02T00:13:55.747Z,18.27
2022-09-02T00:14:56.762Z,18.18
2022-09-02T00:15:56.144Z,18.33
2022-09-02T00:16:56.353Z,18.22
2022-09-02T00:17:57.272Z,18.33
2022-09-02T00:18:56.668Z,18.27
2022-09-02T00:19:56.811Z,18.29
2022-09-02T00:20:56.971Z,18.28
2022-09-02T00:21:57.110Z,18.33
2022-09-02T00:22:58.231Z,18.27
2022-09-02T00:23:57.431Z,18.25
2022-09-02T00:24:58.777Z,18.21
2022-09-02T00:25:58.764Z,18.19
2022-09-02T00:26:58.763Z,18.09
2022-09-02T00:27:58.136Z,18.21
2022-09-02T00:28:58.301Z,18.21
2022-09-02T00:29:58.513Z,18.28
2022-09-02T00:30:58.777Z,18.22
2022-09-02T00:31:59.373Z,18.17
2022-09-02T00:32:59.063Z,18.21
2022-09-02T00:33:59.282Z,18.12
2022-09-02T00:34:59.426Z,18.13
2022-09-02T00:35:59.779Z,18.17
2022-09-02T00:37:00.768Z,18.13
2022-09-02T00:38:00.020Z,18.17
2022-09-02T00:39:00.186Z,18.00
2022-09-02T00:40:01.266Z,17.99
2022-09-02T00:41:00.784Z,18.04
2022-09-02T00:42:00.694Z,17.95
2022-09-02T00:43:00.886Z,18.00
2022-09-02T00:44:01.023Z,18.03
2022-09-02T00:45:02.780Z,17.95
2022-09-02T00:46:01.496Z,17.91
2022-09-02T00:47:01.521Z,17.87
2022-09-02T00:48:01.781Z,17.89
2022-09-02T00:49:02.772Z,17.88
2022-09-02T00:50:02.023Z,17.82
2022-09-02T00:51:02.175Z,17.89
2022-09-02T00:52:03.271Z,17.78
2022-09-02T00:53:02.536Z,17.87
2022-09-02T00:54:02.678Z,17.82
2022-09-02T00:55:03.774Z,17.81
2022-09-02T00:56:04.043Z,17.87
2022-09-02T00:57:03.189Z,17.81
2022-09-02T00:58:03.384Z,17.78
2022-09-02T00:59:04.536Z,17.82
2022-09-02T01:00:04.278Z,17.84
2022-09-02T01:01:04.888Z,17.79
2022-09-02T01:02:04.143Z,17.82
2022-09-02T01:03:04.237Z,17.84
2022-09-02T01:04:04.405Z,17.88
2022-09-02T01:05:04.581Z,17.94
2022-09-02T01:06:05.285Z,17.91
2022-09-02T01:07:04.913Z,17.82
2022-09-02T01:08:05.080Z,17.94
2022-09-02T01:09:05.262Z,17.79
2022-09-02T01:10:05.450Z,17.89
2022-09-02T01:11:06.376Z,17.87
2022-09-02T01:12:05.792Z,17.84
2022-09-02T01:13:05.978Z,17.81
2022-09-02T01:14:06.147Z,17.87
2022-09-02T01:15:06.336Z,17.84
2022-09-02T01:16:06.617Z,17.82
2022-09-02T01:17:06.695Z,17.91
2022-09-02T01:18:06.870Z,17.87
2022-09-02T01:19:07.782Z,17.97
2022-09-02T01:20:07.172Z,17.87
2022-09-02T01:21:07.346Z,17.81
2022-09-02T01:22:07.514Z,17.88
2022-09-02T01:23:07.637Z,17.79
2022-09-02T01:24:07.780Z,17.76
2022-09-02T01:25:07.893Z,17.70
2022-09-02T01:26:08.121Z,17.66
2022-09-02T01:27:08.386Z,17.81
2022-09-02T01:28:08.479Z,17.70
2022-09-02T01:29:08.703Z,17.70
2022-09-02T01:30:09.784Z,17.81
2022-09-02T01:31:09.077Z,17.82
2022-09-02T01:32:09.138Z,17.74
2022-09-02T01:33:09.265Z,17.84
2022-09-02T01:34:10.286Z,17.70
2022-09-02T01:35:10.291Z,17.74
2022-09-02T01:36:10.289Z,17.70
2022-09-02T01:37:09.867Z,17.64
2022-09-02T01:38:10.298Z,17.70
2022-09-02T01:39:10.300Z,17.71
2022-09-02T01:40:10.816Z,17.64
2022-09-02T01:41:10.446Z,17.64
2022-09-02T01:42:10.594Z,17.64
2022-09-02T01:43:10.846Z,17.67
2022-09-02T01:44:10.893Z,17.62
2022-09-02T01:45:11.047Z,17.54
2022-09-02T01:46:11.257Z,17.63
2022-09-02T01:47:11.418Z,17.55
2022-09-02T01:48:12.288Z,17.59
2022-09-02T01:49:11.810Z,17.55
2022-09-02T01:50:11.973Z,17.53
2022-09-02T01:51:12.132Z,17.50
2022-09-02T01:52:13.290Z,17.54
2022-09-02T01:53:12.538Z,17.41
2022-09-02T01:54:12.661Z,17.47
2022-09-02T01:55:12.810Z,17.46
2022-09-02T01:56:12.972Z,17.41
2022-09-02T01:57:13.135Z,17.33
2022-09-02T01:58:13.264Z,17.43
2022-09-02T01:59:14.296Z,17.30
2022-09-02T02:00:13.535Z,17.35
2022-09-02T02:01:13.790Z,17.25
2022-09-02T02:02:13.869Z,17.43
2022-09-02T02:03:14.046Z,17.28
2022-09-02T02:04:14.167Z,17.26
2022-09-02T02:05:14.285Z,17.36
2022-09-02T02:06:14.812Z,17.30
2022-09-02T02:07:14.560Z,17.26
2022-09-02T02:08:14.688Z,17.30
2022-09-02T02:09:15.796Z,17.23
2022-09-02T02:10:15.306Z,17.25
2022-09-02T02:11:15.205Z,17.26
2022-09-02T02:12:16.300Z,17.17
2022-09-02T02:13:15.568Z,17.11
2022-09-02T02:14:15.751Z,17.13
2022-09-02T02:15:15.919Z,17.23
2022-09-02T02:16:16.168Z,17.20
2022-09-02T02:17:16.264Z,17.25
2022-09-02T02:18:16.449Z,17.25
2022-09-02T02:19:17.301Z,17.20
2022-09-02T02:20:17.311Z,17.20
2022-09-02T02:21:17.003Z,17.25
2022-09-02T02:22:17.167Z,17.10
2022-09-02T02:23:18.437Z,17.18
2022-09-02T02:24:17.478Z,17.08
2022-09-02T02:25:17.649Z,17.11
2022-09-02T02:26:17.860Z,17.15
2022-09-02T02:27:18.008Z,17.00
2022-09-02T02:28:18.174Z,17.06
2022-09-02T02:29:19.303Z,17.04
2022-09-02T02:30:18.556Z,17.10
2022-09-02T02:31:18.872Z,17.03
2022-09-02T02:32:19.805Z,16.99
2022-09-02T02:33:19.172Z,17.00
2022-09-02T02:34:19.358Z,17.07
2022-09-02T02:35:19.510Z,17.00
2022-09-02T02:36:19.673Z,16.98
2022-09-02T02:37:24.729Z,16.99
2022-09-02T02:38:22.808Z,17.03
2022-09-02T02:39:20.215Z,17.04
2022-09-02T02:40:20.481Z,17.00
2022-09-02T02:41:20.553Z,17.10
2022-09-02T02:42:21.316Z,16.98
2022-09-02T02:43:20.959Z,17.03
2022-09-02T02:44:21.127Z,16.96
2022-09-02T02:45:22.311Z,16.92
2022-09-02T02:46:21.568Z,16.95
2022-09-02T02:47:21.826Z,17.00
2022-09-02T02:48:21.961Z,16.99
2022-09-02T02:49:22.173Z,17.00
2022-09-02T02:50:22.821Z,16.99
2022-09-02T02:51:22.426Z,16.88
2022-09-02T02:52:22.580Z,16.93
2022-09-02T02:53:23.511Z,16.93
2022-09-02T02:54:22.850Z,16.93
2022-09-02T02:55:23.993Z,16.90
2022-09-02T02:56:23.086Z,16.89
2022-09-02T02:57:23.243Z,16.95
2022-09-02T02:58:23.368Z,16.93
2022-09-02T02:59:24.317Z,16.92
2022-09-02T03:00:23.707Z,16.85
2022-09-02T03:01:23.906Z,16.92
2022-09-02T03:02:24.098Z,16.86
2022-09-02T03:03:24.142Z,16.90
2022-09-02T03:04:24.295Z,16.88
2022-09-02T03:05:24.827Z,16.96
2022-09-02T03:06:26.470Z,16.85
2022-09-02T03:07:24.750Z,16.99
2022-09-02T03:08:24.887Z,16.96
2022-09-02T03:09:25.041Z,17.00
2022-09-02T03:10:25.277Z,16.98
2022-09-02T03:11:26.320Z,16.96
2022-09-02T03:12:26.319Z,16.99
2022-09-02T03:13:25.715Z,16.98
2022-09-02T03:14:25.823Z,16.98
2022-09-02T03:15:25.990Z,16.98
2022-09-02T03:16:26.866Z,17.00
2022-09-02T03:17:26.290Z,17.03
2022-09-02T03:18:26.432Z,16.99
2022-09-02T03:19:26.578Z,17.06
2022-09-02T03:20:27.338Z,17.08
2022-09-02T03:21:26.937Z,17.07
2022-09-02T03:22:27.094Z,16.98
2022-09-02T03:23:27.213Z,17.03
2022-09-02T03:24:27.362Z,16.96
2022-09-02T03:25:32.255Z,17.04
2022-09-02T03:26:29.326Z,17.08
2022-09-02T03:27:27.904Z,17.06
2022-09-02T03:28:28.084Z,17.04
2022-09-02T03:29:28.232Z,17.08
2022-09-02T03:30:28.353Z,16.98
2022-09-02T03:31:28.613Z,16.98
2022-09-02T03:32:30.596Z,16.99
2022-09-02T03:33:28.920Z,16.93
2022-09-02T03:34:29.187Z,17.08
2022-09-02T03:35:29.344Z,16.99
2022-09-02T03:36:30.324Z,17.00
2022-09-02T03:37:30.334Z,17.03
2022-09-02T03:38:29.839Z,17.03
2022-09-02T03:39:29.953Z,17.04
2022-09-02T03:40:30.186Z,17.06
2022-09-02T03:41:30.222Z,17.08
2022-09-02T03:42:30.381Z,17.13
2022-09-02T03:43:30.560Z,17.08
2022-09-02T03:44:30.701Z,17.11
2022-09-02T03:45:30.881Z,17.08
2022-09-02T03:46:31.072Z,17.08
2022-09-02T03:47:31.238Z,17.17
2022-09-02T03:48:31.380Z,17.13
2022-09-02T03:49:31.560Z,17.13
2022-09-02T03:50:31.713Z,17.17
2022-09-02T03:51:31.852Z,17.13
2022-09-02T03:52:31.989Z,17.11
2022-09-02T03:53:32.138Z,17.07
2022-09-02T03:54:32.831Z,17.11
2022-09-02T03:55:32.457Z,17.11
2022-09-02T03:56:32.601Z,17.06
2022-09-02T03:57:33.332Z,17.08
2022-09-02T03:58:33.344Z,17.06
2022-09-02T03:59:33.076Z,17.13
2022-09-02T04:00:33.835Z,17.11
2022-09-02T04:01:34.501Z,17.04
2022-09-02T04:02:34.405Z,17.08
2022-09-02T04:03:34.332Z,17.08
2022-09-02T04:04:34.834Z,17.08
2022-09-02T04:05:34.082Z,17.11
2022-09-02T04:06:34.346Z,17.07
2022-09-02T04:07:35.340Z,17.08
2022-09-02T04:08:35.332Z,17.08
2022-09-02T04:09:34.947Z,17.06
2022-09-02T04:10:35.068Z,17.04
2022-09-02T04:11:35.216Z,17.04
2022-09-02T04:12:35.851Z,17.08
2022-09-02T04:13:35.465Z,17.14
2022-09-02T04:14:36.347Z,17.14
2022-09-02T04:15:35.818Z,17.08
2022-09-02T04:16:35.990Z,17.04
2022-09-02T04:17:36.187Z,17.13
2022-09-02T04:18:36.314Z,17.14
2022-09-02T04:19:36.567Z,17.13
2022-09-02T04:20:37.337Z,17.11
2022-09-02T04:21:36.825Z,17.14
2022-09-02T04:22:36.952Z,17.14
2022-09-02T04:23:37.091Z,17.08
2022-09-02T04:24:37.229Z,17.17
2022-09-02T04:25:37.374Z,17.10
2022-09-02T04:26:38.857Z,17.08
2022-09-02T04:27:38.707Z,17.17
2022-09-02T04:28:37.922Z,17.18
2022-09-02T04:29:38.073Z,17.11
2022-09-02T04:30:38.269Z,17.26
2022-09-02T04:31:38.477Z,17.13
2022-09-02T04:32:40.860Z,17.14
2022-09-02T04:33:39.839Z,17.11
2022-09-02T04:34:39.842Z,17.15
2022-09-02T04:35:39.109Z,17.14
2022-09-02T04:36:39.273Z,17.18
2022-09-02T04:37:39.430Z,17.17
2022-09-02T04:38:39.563Z,17.10
2022-09-02T04:39:40.349Z,17.11
2022-09-02T04:40:39.915Z,17.18
2022-09-02T04:41:41.859Z,17.10
2022-09-02T04:42:40.862Z,17.13
2022-09-02T04:43:40.342Z,17.18
2022-09-02T04:44:40.473Z,17.04
2022-09-02T04:45:40.624Z,17.15
2022-09-02T04:46:40.804Z,17.18
2022-09-02T04:47:40.983Z,17.06
2022-09-02T04:48:41.115Z,17.10
2022-09-02T04:49:41.255Z,17.18
2022-09-02T04:50:41.398Z,17.14
2022-09-02T04:51:42.353Z,17.25
2022-09-02T04:52:41.721Z,17.04
2022-09-02T04:53:41.871Z,17.10
2022-09-02T04:54:41.995Z,17.04
2022-09-02T04:55:42.137Z,17.17
2022-09-02T04:56:42.851Z,17.20
2022-09-02T04:57:42.480Z,17.11
2022-09-02T04:58:42.739Z,17.20
2022-09-02T04:59:42.877Z,17.07
2022-09-02T05:00:43.859Z,17.15
2022-09-02T05:01:43.982Z,17.10
2022-09-02T05:02:43.512Z,17.14
2022-09-02T05:03:43.584Z,17.11
2022-09-02T05:04:43.740Z,17.17
2022-09-02T05:05:43.920Z,17.07
2022-09-02T05:06:44.804Z,17.18
2022-09-02T05:07:45.295Z,17.06
2022-09-02T05:08:44.419Z,17.11
2022-09-02T05:09:44.619Z,17.20
2022-09-02T05:10:44.788Z,17.14
2022-09-02T05:11:44.973Z,17.17
2022-09-02T05:12:45.120Z,17.18
2022-09-02T05:13:45.265Z,17.14
2022-09-02T05:14:45.437Z,17.17
2022-09-02T05:15:46.383Z,17.18
2022-09-02T05:16:45.843Z,17.08
2022-09-02T05:17:45.965Z,17.15
2022-09-02T05:18:46.877Z,17.20
2022-09-02T05:19:46.294Z,17.11
2022-09-02T05:20:46.872Z,17.11
2022-09-02T05:21:46.599Z,17.14
2022-09-02T05:22:46.738Z,17.22
2022-09-02T05:23:46.852Z,17.14
2022-09-02T05:24:47.867Z,17.08
2022-09-02T05:25:47.214Z,17.22
2022-09-02T05:26:47.448Z,17.14
2022-09-02T05:27:47.585Z,17.08
2022-09-02T05:28:47.748Z,17.14
2022-09-02T05:29:48.374Z,17.11
2022-09-02T05:30:48.182Z,17.14
2022-09-02T05:31:48.421Z,17.14
2022-09-02T05:32:48.562Z,17.22
2022-09-02T05:33:48.761Z,17.17
2022-09-02T05:34:48.922Z,17.17
2022-09-02T05:35:49.903Z,17.28
2022-09-02T05:36:49.218Z,17.20
2022-09-02T05:37:49.379Z,17.20
2022-09-02T05:38:49.908Z,17.15
2022-09-02T05:39:50.365Z,17.23
2022-09-02T05:40:49.991Z,17.20
2022-09-02T05:41:50.106Z,17.18
2022-09-02T05:42:50.864Z,17.20
2022-09-02T05:43:50.504Z,17.25
2022-09-02T05:44:51.402Z,17.30
2022-09-02T05:45:50.851Z,17.43
2022-09-02T05:46:50.917Z,17.30
2022-09-02T05:47:51.079Z,17.26
2022-09-02T05:48:51.245Z,17.36
2022-09-02T05:49:51.410Z,17.33
2022-09-02T05:50:57.624Z,17.35
2022-09-02T05:51:53.371Z,17.29
2022-09-02T05:52:51.861Z,17.32
2022-09-02T05:53:52.043Z,17.25
2022-09-02T05:54:52.189Z,17.20
2022-09-02T05:55:52.360Z,17.26
2022-09-02T05:56:52.511Z,17.20
2022-09-02T05:57:52.887Z,17.22
2022-09-02T05:58:53.870Z,17.26
2022-09-02T05:59:53.138Z,17.23
2022-09-02T06:00:53.867Z,17.11
2022-09-02T06:01:53.563Z,17.23
2022-09-02T06:02:53.790Z,17.26
2022-09-02T06:03:53.955Z,17.23
2022-09-02T06:04:54.118Z,17.26
2022-09-02T06:05:54.264Z,17.20
2022-09-02T06:06:54.420Z,17.28
2022-09-02T06:07:54.578Z,17.23
2022-09-02T06:08:55.375Z,17.30
2022-09-02T06:09:54.891Z,17.30
2022-09-02T06:10:55.035Z,17.33
2022-09-02T06:11:55.278Z,17.41
2022-09-02T06:12:55.432Z,17.36
2022-09-02T06:13:55.561Z,17.36
2022-09-02T06:14:55.725Z,17.35
2022-09-02T06:15:55.955Z,17.32
2022-09-02T06:16:56.130Z,17.41
2022-09-02T06:17:56.291Z,17.36
2022-09-02T06:18:56.530Z,17.43
2022-09-02T06:19:56.669Z,17.51
2022-09-02T06:20:56.800Z,17.54
2022-09-02T06:21:56.977Z,17.55
2022-09-02T06:22:57.127Z,17.55
2022-09-02T06:23:57.292Z,17.63
2022-09-02T06:24:58.400Z,17.66
2022-09-02T06:25:57.667Z,17.73
2022-09-02T06:26:58.380Z,17.74
2022-09-02T06:27:58.016Z,17.76
2022-09-02T06:28:58.150Z,17.81
2022-09-02T06:29:58.320Z,17.76
2022-09-02T06:30:58.615Z,17.84
2022-09-02T06:31:58.691Z,17.78
2022-09-02T06:32:58.848Z,17.85
2022-09-02T06:33:59.011Z,17.84
2022-09-02T06:34:59.197Z,17.85
2022-09-02T06:35:59.389Z,17.88
2022-09-02T06:37:00.378Z,17.89
2022-09-02T06:38:00.386Z,17.88
2022-09-02T06:38:59.936Z,17.95
2022-09-02T06:40:00.915Z,18.00
2022-09-02T06:41:00.306Z,18.04
2022-09-02T06:42:00.500Z,18.02
2022-09-02T06:43:02.385Z,18.09
2022-09-02T06:44:00.861Z,18.09
2022-09-02T06:45:01.037Z,18.07
2022-09-02T06:46:01.935Z,18.12
2022-09-02T06:47:01.356Z,18.13
2022-09-02T06:48:02.383Z,18.25
2022-09-02T06:49:02.610Z,18.15
2022-09-02T06:50:01.732Z,18.19
2022-09-02T06:51:01.885Z,18.21
2022-09-02T06:52:02.396Z,18.28
2022-09-02T06:53:02.212Z,18.27
2022-09-02T06:54:02.361Z,18.24
2022-09-02T06:55:02.514Z,18.34
2022-09-02T06:56:02.668Z,18.34
2022-09-02T06:57:02.837Z,18.29
2022-09-02T06:58:03.886Z,18.37
2022-09-02T06:59:03.133Z,18.36
2022-09-02T07:00:03.277Z,18.36
2022-09-02T07:01:04.468Z,18.39
2022-09-02T07:02:04.218Z,18.42
2022-09-02T07:03:03.781Z,18.46
2022-09-02T07:04:03.936Z,18.39
2022-09-02T07:05:04.186Z,18.36
2022-09-02T07:06:04.320Z,18.37
2022-09-02T07:07:04.464Z,18.43
2022-09-02T07:08:04.603Z,18.50
2022-09-02T07:09:04.754Z,18.54
2022-09-02T07:10:04.924Z,18.47
2022-09-02T07:11:05.090Z,18.57
2022-09-02T07:12:05.960Z,18.52
2022-09-02T07:13:05.460Z,18.59
2022-09-02T07:14:06.394Z,18.54
2022-09-02T07:15:05.912Z,18.61
2022-09-02T07:16:05.949Z,18.68
2022-09-02T07:17:06.974Z,18.65
2022-09-02T07:18:06.303Z,18.70
2022-09-02T07:19:11.597Z,18.61
2022-09-02T07:20:09.395Z,18.67
2022-09-02T07:21:06.866Z,18.67
2022-09-02T07:22:07.897Z,18.64
2022-09-02T07:23:07.297Z,18.58
2022-09-02T07:24:07.440Z,18.67
2022-09-02T07:25:07.632Z,18.58
2022-09-02T07:26:07.775Z,18.59
2022-09-02T07:27:07.922Z,18.61
2022-09-02T07:28:08.898Z,18.62
2022-09-02T07:29:08.255Z,18.72
2022-09-02T07:30:08.913Z,18.70
2022-09-02T07:31:09.489Z,18.76
2022-09-02T07:32:08.866Z,18.70
2022-09-02T07:33:09.118Z,18.76
2022-09-02T07:34:09.226Z,18.80
2022-09-02T07:35:09.466Z,18.79
2022-09-02T07:36:11.039Z,18.74
2022-09-02T07:37:11.082Z,18.83
2022-09-02T07:38:11.417Z,18.84
2022-09-02T07:39:10.900Z,18.82
2022-09-02T07:40:10.257Z,18.79
2022-09-02T07:41:10.381Z,18.86
2022-09-02T07:42:10.613Z,18.99
2022-09-02T07:43:10.864Z,19.01
2022-09-02T07:44:11.122Z,19.08
2022-09-02T07:45:11.251Z,19.06
2022-09-02T07:46:11.953Z,19.11
2022-09-02T07:47:11.569Z,19.13
2022-09-02T07:48:11.950Z,18.99
2022-09-02T07:49:12.908Z,19.08
2022-09-02T07:50:18.483Z,19.10
2022-09-02T07:51:14.291Z,19.11
2022-09-02T07:52:12.524Z,19.13
2022-09-02T07:53:12.678Z,18.99
2022-09-02T07:54:12.814Z,19.13
2022-09-02T07:55:15.122Z,19.05
2022-09-02T07:56:14.119Z,19.10
2022-09-02T07:57:13.372Z,19.13
2022-09-02T07:58:16.173Z,19.13
2022-09-02T07:59:13.741Z,19.14
2022-09-02T08:00:13.879Z,19.02
2022-09-02T08:01:14.187Z,19.10
2022-09-02T08:02:14.304Z,19.05
2022-09-02T08:03:14.493Z,19.11
2022-09-02T08:04:15.408Z,19.13
2022-09-02T08:05:14.791Z,19.05
2022-09-02T08:06:14.961Z,19.15
2022-09-02T08:07:15.124Z,19.28
2022-09-02T08:08:15.309Z,19.28
2022-09-02T08:09:16.413Z,19.29
2022-09-02T08:10:15.644Z,19.35
2022-09-02T08:11:16.437Z,19.32
2022-09-02T08:12:20.124Z,19.33
2022-09-02T08:13:17.143Z,19.36
2022-09-02T08:14:16.912Z,19.24
2022-09-02T08:15:16.529Z,19.24
2022-09-02T08:16:16.780Z,19.25
2022-09-02T08:17:16.905Z,19.33
2022-09-02T08:18:21.801Z,19.32
2022-09-02T08:19:18.275Z,19.33
2022-09-02T08:20:18.419Z,19.43
2022-09-02T08:21:17.633Z,19.43
2022-09-02T08:22:17.761Z,19.48
2022-09-02T08:23:35.442Z,19.58
2022-09-02T08:24:20.134Z,19.57
2022-09-02T08:25:18.916Z,19.54
2022-09-02T08:26:19.420Z,19.61
2022-09-02T08:27:19.417Z,19.70
2022-09-02T08:28:19.449Z,19.57
2022-09-02T08:29:19.925Z,19.57
2022-09-02T08:30:19.918Z,19.69
2022-09-02T08:31:19.435Z,19.68
2022-09-02T08:32:19.606Z,19.73
2022-09-02T08:33:19.943Z,19.72
2022-09-02T08:34:19.994Z,19.83
2022-09-02T08:35:20.185Z,19.83
2022-09-02T08:36:20.313Z,19.87
2022-09-02T08:37:21.419Z,20.03
2022-09-02T08:38:20.671Z,20.06
2022-09-02T08:39:21.420Z,20.13
2022-09-02T08:40:21.552Z,20.24
2022-09-02T08:41:21.301Z,20.21
2022-09-02T08:42:21.430Z,20.30
2022-09-02T08:43:21.561Z,20.31
2022-09-02T08:44:22.420Z,20.46
2022-09-02T08:45:21.934Z,20.46
2022-09-02T08:46:22.107Z,20.49
2022-09-02T08:47:22.933Z,20.65
2022-09-02T08:48:22.446Z,20.58
2022-09-02T08:49:23.421Z,20.58
2022-09-02T08:50:22.800Z,20.61
2022-09-02T08:51:22.957Z,20.72
2022-09-02T08:52:23.439Z,20.77
2022-09-02T08:53:23.419Z,20.64
2022-09-02T08:54:23.499Z,20.66
2022-09-02T08:55:23.934Z,20.83
2022-09-02T08:56:23.826Z,20.81
2022-09-02T08:57:24.928Z,20.76
2022-09-02T08:58:24.447Z,20.77
2022-09-02T08:59:24.931Z,20.87
2022-09-02T09:00:24.558Z,20.96
2022-09-02T09:01:24.893Z,21.05
2022-09-02T09:02:25.023Z,21.08
2022-09-02T09:03:25.124Z,21.30
2022-09-02T09:04:25.300Z,21.19
2022-09-02T09:05:25.449Z,21.19
2022-09-02T09:06:26.428Z,21.09
2022-09-02T09:07:25.934Z,21.09
2022-09-02T09:08:26.095Z,21.05
2022-09-02T09:09:26.194Z,21.04
2022-09-02T09:10:26.312Z,21.04
2022-09-02T09:11:27.431Z,21.08
2022-09-02T09:12:26.950Z,21.16
2022-09-02T09:13:26.837Z,21.20
2022-09-02T09:14:26.979Z,21.36
2022-09-02T09:15:27.124Z,21.44
2022-09-02T09:16:27.305Z,21.54
2022-09-02T09:17:27.400Z,21.57
2022-09-02T09:18:27.527Z,21.76
2022-09-02T09:19:27.944Z,21.83
2022-09-02T09:20:27.934Z,21.91
2022-09-02T09:21:28.068Z,21.82
2022-09-02T09:22:28.203Z,21.76
2022-09-02T09:23:28.932Z,21.85
2022-09-02T09:24:30.967Z,21.92
2022-09-02T09:25:28.659Z,22.04
2022-09-02T09:26:29.438Z,22.09
2022-09-02T09:27:29.047Z,22.32
2022-09-02T09:28:29.204Z,22.32
2022-09-02T09:29:29.446Z,22.25
2022-09-02T09:30:29.501Z,22.34
2022-09-02T09:31:29.716Z,22.46
2022-09-02T09:32:29.774Z,22.50
2022-09-02T09:33:29.904Z,22.52
2022-09-02T09:34:30.087Z,22.65
2022-09-02T09:35:30.259Z,22.43
2022-09-02T09:36:30.431Z,22.52
2022-09-02T09:37:35.207Z,22.62
2022-09-02T09:38:32.801Z,22.64
2022-09-02T09:39:31.455Z,22.54
2022-09-02T09:40:31.286Z,22.47
2022-09-02T09:41:31.380Z,22.53
2022-09-02T09:42:31.542Z,22.86
2022-09-02T09:43:32.477Z,23.09
2022-09-02T09:44:32.441Z,23.26
2022-09-02T09:45:32.982Z,23.05
2022-09-02T09:46:32.504Z,22.96
2022-09-02T09:47:32.466Z,22.99
2022-09-02T09:48:32.600Z,22.82
2022-09-02T09:49:33.450Z,22.89
2022-09-02T09:50:32.968Z,22.78
2022-09-02T09:51:49.853Z,23.08
2022-09-02T09:52:34.377Z,23.19
2022-09-02T09:53:33.612Z,23.70
2022-09-02T09:54:33.744Z,24.19
2022-09-02T09:55:36.868Z,24.38
2022-09-02T09:56:37.702Z,24.49
2022-09-02T09:57:35.876Z,24.45
2022-09-02T09:58:34.963Z,24.77
2022-09-02T09:59:34.654Z,24.59
2022-09-02T10:00:34.907Z,24.77
2022-09-02T10:01:34.946Z,24.41
2022-09-02T10:02:36.653Z,23.87
2022-09-02T10:03:36.377Z,23.89
2022-09-02T10:04:44.203Z,24.02
2022-09-02T10:05:38.455Z,23.85
2022-09-02T10:06:35.882Z,23.90
2022-09-02T10:07:36.030Z,24.00
2022-09-02T10:08:36.958Z,23.87
2022-09-02T10:09:36.302Z,23.64
2022-09-02T10:10:36.541Z,23.19
2022-09-02T10:11:36.683Z,22.69
2022-09-02T10:12:36.804Z,22.57
2022-09-02T10:13:36.954Z,22.57
2022-09-02T10:14:37.098Z,22.41
2022-09-02T10:15:37.228Z,22.44
2022-09-02T10:16:37.989Z,22.28
2022-09-02T10:17:37.595Z,22.27
2022-09-02T10:18:37.970Z,22.28
2022-09-02T10:19:38.466Z,22.35
2022-09-02T10:20:44.603Z,22.43
2022-09-02T10:21:44.865Z,22.47
2022-09-02T10:22:59.643Z,22.50
2022-09-02T10:23:39.972Z,22.50
2022-09-02T10:24:38.690Z,22.64
2022-09-02T10:25:38.814Z,22.68
2022-09-02T10:26:39.458Z,22.87
2022-09-02T10:27:39.068Z,23.01
2022-09-02T10:28:39.482Z,23.04
2022-09-02T10:29:39.404Z,23.09
2022-09-02T10:30:39.562Z,23.23
2022-09-02T10:31:40.022Z,23.04
2022-09-02T10:32:39.942Z,23.07
2022-09-02T10:33:40.962Z,23.09
2022-09-02T10:34:40.474Z,23.15
2022-09-02T10:35:40.965Z,23.39
2022-09-02T10:36:40.568Z,23.50
2022-09-02T10:37:41.467Z,23.55
2022-09-02T10:38:41.461Z,23.64
2022-09-02T10:39:41.091Z,23.68
2022-09-02T10:40:41.598Z,23.72
2022-09-02T10:41:41.547Z,23.61
2022-09-02T10:42:41.611Z,23.50
2022-09-02T10:43:41.757Z,23.32
2022-09-02T10:44:41.957Z,23.38
2022-09-02T10:45:42.139Z,23.31
2022-09-02T10:46:42.356Z,23.05
2022-09-02T10:47:42.506Z,22.80
2022-09-02T10:48:42.586Z,22.72
2022-09-02T10:49:42.716Z,22.68
2022-09-02T10:50:45.526Z,22.78
2022-09-02T10:51:44.972Z,22.75
2022-09-02T10:52:43.480Z,22.87
2022-09-02T10:53:43.998Z,22.92
2022-09-02T10:54:43.497Z,22.93
2022-09-02T10:55:44.472Z,22.93
2022-09-02T10:56:43.845Z,22.80
2022-09-02T10:57:44.490Z,22.82
2022-09-02T10:58:44.118Z,22.86
2022-09-02T10:59:44.266Z,22.90
2022-09-02T11:00:45.015Z,23.04
2022-09-02T11:01:44.982Z,22.97
2022-09-02T11:02:45.836Z,23.11
2022-09-02T11:03:44.995Z,23.27
2022-09-02T11:04:45.979Z,23.64
2022-09-02T11:05:45.973Z,23.76
2022-09-02T11:07:02.009Z,23.80
2022-09-02T11:07:47.736Z,23.83
2022-09-02T11:08:45.938Z,23.92
2022-09-02T11:09:46.084Z,24.01
2022-09-02T11:10:46.233Z,24.08
2022-09-02T11:11:47.005Z,24.08
2022-09-02T11:12:47.519Z,24.05
2022-09-02T11:13:46.754Z,23.94
2022-09-02T11:14:46.916Z,23.89
2022-09-02T11:15:47.117Z,23.85
2022-09-02T11:16:47.248Z,23.87
2022-09-02T11:17:48.001Z,23.95
2022-09-02T11:18:47.598Z,23.86
2022-09-02T11:19:47.721Z,23.83
2022-09-02T11:20:47.846Z,23.55
2022-09-02T11:21:47.973Z,23.53
2022-09-02T11:22:48.100Z,23.58
2022-09-02T11:23:49.224Z,23.43
2022-09-02T11:24:48.439Z,23.27
2022-09-02T11:25:48.600Z,23.26
2022-09-02T11:26:48.782Z,23.31
2022-09-02T11:27:48.896Z,23.47
2022-09-02T11:28:49.985Z,23.35
2022-09-02T11:29:49.256Z,23.26
2022-09-02T11:30:49.501Z,23.26
2022-09-02T11:31:49.489Z,23.19
2022-09-02T11:32:49.647Z,23.17
2022-09-02T11:33:49.797Z,22.97
2022-09-02T11:34:50.029Z,22.90
2022-09-02T11:35:50.201Z,23.05
2022-09-02T11:36:50.987Z,23.22
2022-09-02T11:37:50.480Z,23.26
2022-09-02T11:38:50.614Z,23.20
2022-09-02T11:40:02.287Z,23.14
2022-09-02T11:41:53.213Z,23.12
2022-09-02T11:42:52.021Z,23.08
2022-09-02T11:43:52.050Z,23.05
2022-09-02T11:44:52.391Z,22.97
2022-09-02T11:45:52.550Z,22.87
2022-09-02T11:46:52.605Z,22.80
2022-09-02T11:47:52.272Z,22.87
2022-09-02T11:48:52.513Z,23.01
2022-09-02T11:49:52.627Z,23.05
2022-09-02T11:50:53.498Z,23.23
2022-09-02T11:51:52.902Z,23.57
2022-09-02T11:52:53.030Z,23.62
2022-09-02T11:53:55.031Z,23.55
2022-09-02T11:54:53.314Z,23.58
2022-09-02T11:55:54.000Z,23.79
2022-09-02T11:56:54.495Z,24.04
2022-09-02T11:57:53.865Z,24.07
2022-09-02T11:58:54.014Z,23.92
2022-09-02T11:59:54.992Z,23.79
2022-09-02T12:00:54.355Z,23.61
2022-09-02T12:01:55.498Z,23.70
2022-09-02T12:02:54.684Z,23.46
2022-09-02T12:05:00.384Z,23.24
2022-09-02T12:05:56.544Z,23.34
2022-09-02T12:06:55.638Z,23.34
2022-09-02T12:07:56.497Z,23.23
2022-09-02T12:08:55.922Z,23.11
2022-09-02T12:09:56.998Z,23.20
2022-09-02T12:10:56.513Z,23.31
2022-09-02T12:11:56.455Z,23.40
2022-09-02T12:12:56.657Z,23.27
2022-09-02T12:13:56.860Z,23.22
2022-09-02T12:14:57.038Z,23.11
2022-09-02T12:15:57.257Z,23.05
2022-09-02T12:16:57.382Z,23.02
2022-09-02T12:17:58.500Z,23.04
2022-09-02T12:18:57.643Z,23.04
2022-09-02T12:19:57.832Z,22.99
2022-09-02T12:20:58.015Z,23.04
2022-09-02T12:21:58.210Z,23.09
2022-09-02T12:22:58.514Z,23.17
2022-09-02T12:23:58.560Z,23.35
2022-09-02T12:24:58.723Z,23.17
2022-09-02T12:25:59.506Z,23.27
2022-09-02T12:26:59.039Z,23.15
2022-09-02T12:27:59.183Z,23.23
2022-09-02T12:29:00.003Z,23.23
2022-09-02T12:29:59.528Z,23.31
2022-09-02T12:30:59.745Z,23.24
2022-09-02T12:31:59.880Z,23.20
2022-09-02T12:33:00.103Z,23.11
2022-09-02T12:34:00.304Z,22.97
2022-09-02T12:35:00.471Z,23.01
2022-09-02T12:36:00.638Z,22.90
2022-09-02T12:37:01.515Z,22.97
2022-09-02T12:38:01.055Z,22.93
2022-09-02T12:39:02.014Z,22.96
2022-09-02T12:40:01.388Z,22.96
2022-09-02T12:41:02.510Z,23.34
2022-09-02T12:42:01.757Z,23.72
2022-09-02T12:43:01.933Z,24.16
2022-09-02T12:44:02.114Z,24.29
2022-09-02T12:45:02.356Z,24.31
2022-09-02T12:46:02.525Z,24.13
2022-09-02T12:47:02.639Z,23.89
2022-09-02T12:48:02.857Z,23.89
2022-09-02T12:49:03.521Z,23.89
2022-09-02T12:50:03.156Z,23.89
2022-09-02T12:51:04.015Z,23.98
2022-09-02T12:52:03.535Z,24.29
2022-09-02T12:53:04.522Z,24.45
2022-09-02T12:54:04.045Z,24.59
2022-09-02T12:55:04.064Z,24.56
2022-09-02T12:56:04.289Z,24.47
2022-09-02T12:57:04.451Z,24.44